To NAV CANADA Home Page Login to a new session Search on AWWS site Feedback and Comments Disclaimer Vers la page française équivalente Tips FAQ What's new on the site To the Forecasts and Observations / NOTAM section To "File a Flight Plan" website Publications and other links Update of the User's profile FIC Telephone Numbers My Weather Data Folder Route Weather Data Regional Weather Data Local Weather Data To the Forecasts and Observations / NOTAM section
Request Generated 05/26/2016 at 00:31:42 UTC . Weather information available at that time is displayed.

METAR/TAF

CAPE DORSET/NU    

METAR CYTE 260000Z AUTO 30016KT 9SM OVC065 00/M02 A3004 RMK SLP177=
METAR CYTE 252300Z AUTO 29013KT 9SM SCT012 OVC070 01/M01 A3002 RMK
SLP172=
SPECI CYTE 252238Z AUTO 29016KT 9SM SCT014 BKN055 OVC069 01/M01 A3001
RMK SLP168=
SPECI CYTE 252227Z AUTO 29015KT 9SM BKN014 BKN050 OVC070 01/M01 A3001
RMK SLP168=
SPECI CYTE 252216Z AUTO 28013G18KT 9SM FEW050 OVC070 01/M01 A3001 RMK
SLP167=
METAR CYTE 252200Z AUTO 28016KT 9SM -RA OVC070 01/M01 A3000 RMK
SLP164=
SPECI CYTE 252159Z AUTO 28016KT 9SM -RA OVC070 01/M01 A3000 RMK
SLP164=

TAF CYTE 251838Z 2519/2607 27012KT P6SM FEW009 SCT020 OVC040 TEMPO
2519/2603 3SM -SN BR BKN009 OVC030 PROB30 2519/2523 2SM -FZDZ BR
OVC005
FM260300 28010KT P6SM FEW010 SCT025
RMK NXT FCST BY 260100Z=
Your time UTC time
Weather data provided by Environment Canada and NAV CANADA